Time;durP1;ratioP1;P1;durP2;ratioP2;P2;SDS_P1;SDS_P2;PMS_P1;PMS_P2;Temp;Humidity;BMP_temperature;BMP_pressure;BME280_temperature;BME280_humidity;BME280_pressure;Samples;Min_cycle;Max_cycle;Signal;HPM_P1;HPM_P2
2023/03/23 05:30:46;;;;;;;;;3.00;1.00;;;;;13.64;71.42;100265.09;5059857;27;45511;-74
2023/03/23 05:33:12;;;;;;;;;1.25;1.25;;;;;13.68;70.87;100263.09;5046064;28;45371;-74
2023/03/23 05:35:37;;;;;;;;;1.00;1.00;;;;;13.72;71.57;100263.72;5034776;28;54957;-74
2023/03/23 05:38:04;;;;;;;;;0.25;0.25;;;;;13.41;72.09;100213.72;5035001;28;45363;-73
2023/03/23 05:40:29;;;;;;;;;1.50;1.00;;;;;13.63;72.49;100267.91;5034713;28;45422;-73
2023/03/23 05:42:57;;;;;;;;;2.00;2.00;;;;;13.52;73.16;100254.28;5035140;28;45474;-74
2023/03/23 05:45:22;;;;;;;;;1.00;1.00;;;;;13.65;73.17;100271.34;5034622;28;45624;-72
2023/03/23 05:47:48;;;;;;;;;1.00;1.00;;;;;13.67;73.07;100263.19;5034632;28;45362;-73
2023/03/23 05:50:13;;;;;;;;;2.00;2.00;;;;;13.65;73.36;100265.97;5034708;28;45228;-74
2023/03/23 05:52:39;;;;;;;;;1.50;1.25;;;;;13.54;73.57;100258.59;5006582;28;45387;-73
2023/03/23 05:55:05;;;;;;;;;1.25;1.25;;;;;13.50;74.31;100243.63;5033060;28;45498;-73
2023/03/23 05:57:31;;;;;;;;;2.00;1.00;;;;;13.55;73.94;100272.91;5054653;28;45688;-73
2023/03/23 05:59:57;;;;;;;;;1.00;1.00;;;;;13.55;74.71;100259.47;5054621;28;45318;-74
2023/03/23 06:02:24;;;;;;;;;1.50;1.50;;;;;13.58;73.78;100265.53;5055115;28;45303;-73
2023/03/23 06:04:50;;;;;;;;;3.00;1.75;;;;;13.48;74.66;100255.44;5054656;28;45540;-73
2023/03/23 06:07:16;;;;;;;;;1.00;1.00;;;;;13.43;75.06;100253.06;5054855;28;45378;-74
2023/03/23 06:09:41;;;;;;;;;1.00;1.00;;;;;13.48;75.19;100268.91;5054943;28;45339;-74
2023/03/23 06:12:09;;;;;;;;;1.00;1.00;;;;;13.36;75.23;100240.06;5044920;28;45229;-74
2023/03/23 06:14:35;;;;;;;;;1.00;1.00;;;;;13.36;75.46;100259.78;5051290;28;45480;-79
2023/03/23 06:17:00;;;;;;;;;0.00;0.00;;;;;13.48;75.01;100261.69;5036584;28;47625;-78
2023/03/23 06:19:26;;;;;;;;;2.50;1.00;;;;;13.55;75.04;100275.63;5036729;28;45369;-76
2023/03/23 06:21:54;;;;;;;;;2.00;0.00;;;;;13.51;74.99;100271.41;5055384;28;45442;-75
2023/03/23 06:24:19;;;;;;;;;0.75;0.75;;;;;13.32;75.00;100235.88;5055095;28;45541;-81
2023/03/23 06:26:45;;;;;;;;;1.00;1.00;;;;;13.44;75.04;100272.78;5055238;28;46210;-75
2023/03/23 06:29:13;;;;;;;;;1.00;1.00;;;;;13.37;75.03;100269.59;5036501;28;45559;-73
2023/03/23 06:31:45;;;;;;;;;0.00;0.00;;;;;13.49;74.47;100258.03;5064668;28;45351;-75
2023/03/23 06:34:11;;;;;;;;;3.00;1.50;;;;;13.46;74.89;100281.59;5074613;28;45669;-74
2023/03/23 06:36:38;;;;;;;;;2.00;2.00;;;;;13.53;74.70;100270.31;5074623;28;46221;-75
2023/03/23 06:39:04;;;;;;;;;2.00;2.00;;;;;13.50;75.07;100275.06;5074300;28;45369;-74
2023/03/23 06:41:31;;;;;;;;;1.75;1.75;;;;;13.52;74.67;100257.00;5066683;28;45240;-76
2023/03/23 06:43:56;;;;;;;;;1.50;1.50;;;;;13.58;75.00;100270.91;5071862;28;45420;-77
2023/03/23 06:46:22;;;;;;;;;1.50;1.00;;;;;13.60;74.76;100297.75;5074372;28;46393;-75
2023/03/23 06:48:49;;;;;;;;;1.00;1.00;;;;;13.56;74.91;100306.97;5074015;28;45389;-72
2023/03/23 06:51:15;;;;;;;;;1.00;1.00;;;;;13.60;75.37;100303.13;5074355;28;45354;-70
2023/03/23 06:53:40;;;;;;;;;2.75;2.75;;;;;13.51;75.43;100296.53;5074296;28;45275;-73
2023/03/23 06:56:06;;;;;;;;;2.50;2.00;;;;;13.62;75.44;100317.34;5073905;28;45317;-77
2023/03/23 06:58:32;;;;;;;;;1.00;1.00;;;;;13.62;75.64;100320.91;5060427;28;45227;-77
2023/03/23 07:00:58;;;;;;;;;2.00;2.00;;;;;13.67;74.85;100314.38;5074065;28;45541;-76
2023/03/23 07:03:23;;;;;;;;;1.50;1.50;;;;;13.79;75.11;100316.22;5073741;28;45473;-74
2023/03/23 07:05:49;;;;;;;;;4.00;2.00;;;;;13.82;74.65;100316.03;5070742;28;45613;-76
2023/03/23 07:08:15;;;;;;;;;2.00;2.00;;;;;13.93;74.21;100316.22;5035612;28;45276;-72
2023/03/23 07:10:40;;;;;;;;;2.75;2.00;;;;;13.93;74.00;100303.59;5053851;28;45445;-74
2023/03/23 07:13:06;;;;;;;;;2.00;2.00;;;;;13.86;73.58;100313.06;5057197;28;45298;-71
2023/03/23 07:15:32;;;;;;;;;2.00;2.00;;;;;13.88;73.59;100324.56;5067051;28;45271;-73
2023/03/23 07:17:57;;;;;;;;;4.50;3.00;;;;;13.91;73.59;100323.53;5071453;28;45350;-74
2023/03/23 07:20:22;;;;;;;;;2.50;2.00;;;;;13.86;73.44;100329.22;5074248;28;45552;-75
2023/03/23 07:22:48;;;;;;;;;1.50;1.25;;;;;13.89;72.94;100331.69;5074074;28;45390;-71
2023/03/23 07:25:14;;;;;;;;;2.75;2.75;;;;;13.89;72.83;100344.31;5073926;28;46026;-72
2023/03/23 07:27:39;;;;;;;;;2.00;2.00;;;;;13.77;72.74;100324.44;5073333;28;45417;-75
2023/03/23 07:30:05;;;;;;;;;4.75;4.00;;;;;13.82;72.79;100327.69;5074259;28;45305;-75
2023/03/23 07:32:31;;;;;;;;;1.00;1.00;;;;;13.79;72.85;100306.31;5073641;28;45353;-71
2023/03/23 07:34:56;;;;;;;;;3.00;1.00;;;;;13.81;72.11;100307.09;5073847;28;45353;-76
2023/03/23 07:37:22;;;;;;;;;2.50;2.50;;;;;13.91;72.21;100313.59;5073814;28;45232;-72
2023/03/23 07:39:49;;;;;;;;;5.00;3.25;;;;;13.95;71.96;100330.44;5076726;28;45362;-72
2023/03/23 07:42:14;;;;;;;;;2.00;2.00;;;;;13.96;71.64;100332.16;5076917;28;45598;-72
2023/03/23 07:44:39;;;;;;;;;2.25;1.50;;;;;13.98;71.80;100344.56;5076854;28;50920;-73
2023/03/23 07:47:05;;;;;;;;;3.00;3.00;;;;;14.01;71.90;100338.13;5077037;28;45339;-72
2023/03/23 07:49:30;;;;;;;;;2.75;2.75;;;;;14.04;71.76;100345.97;5077259;28;45586;-72
2023/03/23 07:51:57;;;;;;;;;2.00;2.00;;;;;14.06;71.45;100349.44;5076900;28;45248;-72
2023/03/23 07:54:23;;;;;;;;;2.75;2.75;;;;;13.99;70.87;100338.22;5074080;28;46159;-70
2023/03/23 07:56:48;;;;;;;;;4.00;4.00;;;;;14.03;70.65;100328.09;5059745;28;45481;-72
2023/03/23 07:59:15;;;;;;;;;2.00;2.00;;;;;13.97;70.54;100333.88;5066661;28;45329;-71
2023/03/23 08:01:40;;;;;;;;;2.75;2.00;;;;;14.01;70.76;100347.06;5071070;28;45783;-72
2023/03/23 08:04:05;;;;;;;;;3.25;3.00;;;;;14.13;70.56;100364.25;5064642;28;46884;-70
2023/03/23 08:06:34;;;;;;;;;3.50;2.00;;;;;14.07;70.04;100350.31;5067856;28;45304;-73
2023/03/23 08:09:06;;;;;;;;;3.00;3.00;;;;;14.11;70.33;100359.94;5075245;28;45457;-72
2023/03/23 08:11:34;;;;;;;;;4.00;2.00;;;;;14.10;69.93;100351.00;5038476;28;45356;-72
2023/03/23 08:13:59;;;;;;;;;4.50;4.00;;;;;14.15;69.47;100343.44;5074066;28;45363;-72
2023/03/23 08:16:25;;;;;;;;;1.50;1.50;;;;;14.24;69.30;100369.78;5058142;28;45432;-72
2023/03/23 08:18:51;;;;;;;;;2.00;2.00;;;;;14.29;69.23;100356.03;5056727;28;45645;-70
2023/03/23 08:21:18;;;;;;;;;2.25;2.00;;;;;14.30;68.84;100357.72;5068842;28;45422;-72
2023/03/23 08:23:43;;;;;;;;;1.25;1.25;;;;;14.27;69.43;100358.81;5056843;28;46221;-72
2023/03/23 08:26:09;;;;;;;;;3.00;2.25;;;;;14.22;68.47;100351.97;5056131;28;45357;-71
2023/03/23 08:28:36;;;;;;;;;2.00;2.00;;;;;14.29;68.60;100362.25;5057155;28;45494;-72
2023/03/23 08:31:13;;;;;;;;;2.00;2.00;;;;;14.24;68.32;100360.84;5056332;28;46737;-70
2023/03/23 08:33:40;;;;;;;;;5.00;1.75;;;;;14.06;68.49;100344.06;5037587;28;47181;-72
2023/03/23 08:36:08;;;;;;;;;3.00;3.00;;;;;14.27;68.53;100369.59;5061368;28;45500;-72
2023/03/23 08:38:34;;;;;;;;;1.00;1.00;;;;;14.36;68.00;100360.03;5062271;28;45437;-73
2023/03/23 08:41:02;;;;;;;;;2.00;2.00;;;;;14.42;67.80;100356.94;5055297;28;45516;-72
2023/03/23 08:43:28;;;;;;;;;1.00;1.00;;;;;14.34;66.94;100372.75;5056057;28;47242;-72
2023/03/23 08:45:53;;;;;;;;;3.00;1.50;;;;;14.33;67.13;100355.69;5054640;28;45695;-71
2023/03/23 08:48:20;;;;;;;;;5.00;3.25;;;;;14.40;66.87;100369.66;5055896;28;45544;-71
2023/03/23 08:50:45;;;;;;;;;2.00;2.00;;;;;14.39;66.58;100376.88;5055826;28;45259;-72
2023/03/23 08:53:11;;;;;;;;;2.00;2.00;;;;;14.40;66.83;100364.25;5056027;28;45507;-72
2023/03/23 08:55:37;;;;;;;;;3.75;2.25;;;;;14.48;66.65;100359.22;5055752;28;45371;-71
2023/03/23 08:58:03;;;;;;;;;2.75;2.25;;;;;14.52;66.89;100368.84;5056000;28;45379;-73
2023/03/23 09:00:29;;;;;;;;;2.50;2.50;;;;;14.54;66.16;100352.56;5055346;28;45517;-72
2023/03/23 09:02:56;;;;;;;;;4.00;2.00;;;;;14.63;65.88;100352.75;5055722;28;46138;-72
2023/03/23 09:05:24;;;;;;;;;2.00;2.00;;;;;14.57;65.54;100355.88;5062718;28;45386;-72
2023/03/23 09:07:51;;;;;;;;;1.00;1.00;;;;;14.66;65.80;100366.03;5071287;28;45341;-72
2023/03/23 09:10:18;;;;;;;;;2.75;1.00;;;;;14.70;65.25;100391.00;5076131;28;45481;-73
2023/03/23 09:12:45;;;;;;;;;2.50;2.00;;;;;14.64;65.17;100392.25;5057238;28;48403;-73
2023/03/23 09:15:14;;;;;;;;;2.00;2.00;;;;;14.60;65.45;100398.84;5068139;28;45378;-73
2023/03/23 09:17:43;;;;;;;;;1.00;1.00;;;;;14.70;65.38;100391.88;5055630;28;45455;-72
2023/03/23 09:20:11;;;;;;;;;2.00;2.00;;;;;14.74;65.15;100365.50;5063374;28;45587;-72
2023/03/23 09:22:40;;;;;;;;;3.25;2.00;;;;;14.85;64.38;100364.78;5059807;28;46377;-72
2023/03/23 09:25:08;;;;;;;;;3.00;2.00;;;;;14.94;63.97;100373.09;5055115;28;45766;-72
2023/03/23 09:27:36;;;;;;;;;4.75;3.50;;;;;15.03;64.18;100374.28;5069103;28;45275;-72
2023/03/23 09:30:10;;;;;;;;;1.50;1.50;;;;;15.16;63.94;100364.34;5057647;28;45943;-72
2023/03/23 09:32:37;;;;;;;;;3.00;3.00;;;;;15.09;63.52;100371.16;5075518;28;46458;-71
2023/03/23 09:35:04;;;;;;;;;3.25;3.25;;;;;14.94;63.67;100369.53;5075686;28;45398;-71
2023/03/23 09:37:30;;;;;;;;;3.75;3.00;;;;;14.98;63.64;100371.91;5070103;28;45489;-71
2023/03/23 09:39:56;;;;;;;;;4.00;2.00;;;;;14.91;63.79;100388.63;5055228;28;45528;-72
2023/03/23 09:42:47;;;;;;;;;2.25;2.25;;;;;15.00;63.47;100379.91;5055169;28;46009;-72
2023/03/23 09:45:22;;;;;;;;;3.25;2.00;;;;;14.99;63.34;100370.06;5045790;28;45357;-70
2023/03/23 09:47:56;;;;;;;;;3.00;2.25;;;;;14.92;63.56;100361.53;5055889;28;45302;-71
2023/03/23 09:50:32;;;;;;;;;3.00;1.50;;;;;15.20;63.19;100381.22;5055546;28;45207;-71
2023/03/23 09:53:35;;;;;;;;;2.00;2.00;;;;;15.32;62.94;100378.47;5055272;28;46105;-72
2023/03/23 09:56:05;;;;;;;;;1.75;1.75;;;;;15.34;63.08;100373.84;5023370;28;45474;-72
2023/03/23 09:58:52;;;;;;;;;0.75;0.75;;;;;15.32;62.31;100373.09;5058240;28;45272;-72
2023/03/23 10:01:20;;;;;;;;;3.00;1.25;;;;;15.42;62.50;100384.09;5054685;28;45292;-71
2023/03/23 10:03:47;;;;;;;;;4.00;2.50;;;;;15.36;62.36;100361.09;5054391;28;45342;-72
2023/03/23 10:06:17;;;;;;;;;3.00;2.00;;;;;15.49;62.62;100361.06;5063236;28;45466;-73
2023/03/23 10:08:57;;;;;;;;;0.50;0.50;;;;;15.54;61.81;100352.69;5075467;28;45334;-72
2023/03/23 10:11:41;;;;;;;;;2.50;1.50;;;;;15.53;61.79;100359.88;5074766;28;45325;-74
2023/03/23 10:14:16;;;;;;;;;2.00;2.00;;;;;15.54;61.65;100356.25;5074279;28;45722;-70
2023/03/23 10:17:05;;;;;;;;;3.25;2.00;;;;;15.53;61.45;100362.59;5075360;28;45298;-71
2023/03/23 10:19:50;;;;;;;;;2.00;2.00;;;;;15.60;60.75;100361.19;5071925;28;45620;-71
2023/03/23 10:22:22;;;;;;;;;3.00;1.75;;;;;15.68;60.63;100374.16;5067593;28;45519;-72
2023/03/23 10:24:52;;;;;;;;;2.75;1.50;;;;;15.72;59.27;100386.47;5056348;28;46293;-70
2023/03/23 10:27:44;;;;;;;;;1.75;1.00;;;;;15.79;59.97;100376.94;5060536;28;45422;-72
2023/03/23 10:30:30;;;;;;;;;1.25;1.25;;;;;15.79;59.20;100352.59;5000312;28;45391;-70
2023/03/23 10:33:32;;;;;;;;;4.50;1.25;;;;;15.82;59.58;100347.81;5034874;28;45318;-70
2023/03/23 10:36:05;;;;;;;;;2.00;1.50;;;;;15.96;58.83;100354.06;5038227;28;45351;-71
2023/03/23 10:38:45;;;;;;;;;2.75;1.25;;;;;16.03;58.25;100376.97;5041509;28;45422;-71
2023/03/23 10:41:13;;;;;;;;;0.25;0.00;;;;;16.08;58.15;100374.75;5034632;28;45478;-72
2023/03/23 10:43:41;;;;;;;;;1.00;1.00;;;;;16.07;58.10;100368.53;5034124;28;45519;-73
2023/03/23 10:46:47;;;;;;;;;2.75;2.00;;;;;16.22;57.79;100361.09;5034427;28;47264;-72
2023/03/23 10:49:18;;;;;;;;;3.00;3.00;;;;;16.07;58.10;100338.78;5038538;28;45552;-72
2023/03/23 10:51:50;;;;;;;;;2.25;2.25;;;;;16.11;57.43;100359.19;5054412;28;45369;-71
2023/03/23 10:54:32;;;;;;;;;3.00;3.00;;;;;16.31;57.69;100378.47;5054577;28;45230;-73
2023/03/23 10:56:58;;;;;;;;;2.75;2.00;;;;;16.26;57.49;100354.47;5049644;28;47181;-73
2023/03/23 10:59:28;;;;;;;;;2.00;2.00;;;;;16.38;57.10;100352.69;5019949;28;45313;-72
2023/03/23 11:01:58;;;;;;;;;2.00;2.00;;;;;16.50;57.34;100355.28;5054643;28;45640;-72
2023/03/23 11:04:23;;;;;;;;;1.00;1.00;;;;;16.56;56.36;100353.97;5053854;28;45440;-72
2023/03/23 11:06:52;;;;;;;;;2.00;2.00;;;;;16.60;56.34;100345.50;5047946;28;46217;-72
2023/03/23 11:09:21;;;;;;;;;2.00;2.00;;;;;16.78;56.47;100362.19;5054215;28;45394;-73
2023/03/23 11:11:52;;;;;;;;;2.75;2.75;;;;;16.86;56.40;100359.75;5041626;28;45299;-72
2023/03/23 11:14:34;;;;;;;;;2.75;2.75;;;;;16.96;55.68;100357.19;5055241;28;45413;-73
2023/03/23 11:17:04;;;;;;;;;2.25;2.25;;;;;17.03;55.92;100374.66;5037546;28;46480;-73
2023/03/23 11:19:38;;;;;;;;;2.25;1.00;;;;;17.06;55.54;100365.44;5037510;28;45362;-74
2023/03/23 11:22:06;;;;;;;;;7.00;3.75;;;;;17.10;55.32;100354.25;5037247;28;45598;-78
2023/03/23 11:24:40;;;;;;;;;4.00;2.00;;;;;17.07;55.42;100340.09;5037199;28;45335;-74
2023/03/23 11:27:08;;;;;;;;;3.00;1.00;;;;;17.20;54.71;100352.53;5037244;28;45530;-72
2023/03/23 11:29:35;;;;;;;;;2.00;2.00;;;;;17.04;55.02;100360.16;5037242;28;45380;-74
2023/03/23 11:32:07;;;;;;;;;3.00;2.00;;;;;17.12;55.21;100370.38;5050538;28;45315;-76
2023/03/23 11:34:41;;;;;;;;;4.75;4.00;;;;;17.22;55.53;100363.25;5057301;28;45351;-72
2023/03/23 11:37:35;;;;;;;;;2.00;2.00;;;;;17.38;55.09;100363.75;5057876;28;45368;-72
2023/03/23 11:40:15;;;;;;;;;2.00;2.00;;;;;17.55;54.62;100338.84;5020490;28;45507;-72
2023/03/23 11:42:53;;;;;;;;;2.75;2.75;;;;;17.74;53.70;100357.25;5064866;28;45320;-75
2023/03/23 11:45:59;;;;;;;;;2.00;2.00;;;;;17.71;53.20;100333.94;5077508;28;45668;-74
2023/03/23 11:48:27;;;;;;;;;5.25;3.00;;;;;17.83;52.60;100336.63;5059743;28;46540;-73
2023/03/23 11:51:02;;;;;;;;;7.00;2.00;;;;;17.96;52.22;100330.06;5077612;28;45341;-77
2023/03/23 11:53:52;;;;;;;;;3.25;3.25;;;;;18.01;52.07;100336.00;5077658;28;45452;-77
2023/03/23 11:56:27;;;;;;;;;3.25;2.00;;;;;17.97;52.35;100320.94;5078193;28;45406;-79
2023/03/23 11:58:54;;;;;;;;;2.75;2.75;;;;;18.18;52.26;100347.28;5039908;28;46634;-77
2023/03/23 12:01:34;;;;;;;;;3.25;3.00;;;;;18.27;52.40;100350.09;5057983;28;45307;-75
2023/03/23 12:04:24;;;;;;;;;3.50;2.00;;;;;18.12;52.53;100356.78;5058069;28;45356;-77
2023/03/23 12:06:49;;;;;;;;;3.00;3.00;;;;;17.90;52.42;100357.69;5046714;28;45753;-75
2023/03/23 12:09:44;;;;;;;;;2.75;2.75;;;;;17.89;52.74;100357.81;5057774;28;45402;-77
2023/03/23 12:12:30;;;;;;;;;5.00;4.00;;;;;17.90;52.52;100349.56;5066882;28;45329;-74
2023/03/23 12:15:10;;;;;;;;;3.25;3.25;;;;;17.78;53.18;100343.28;5071424;28;45427;-78
2023/03/23 12:17:39;;;;;;;;;2.25;2.25;;;;;18.02;52.93;100354.00;5056925;28;45348;-76
2023/03/23 12:20:27;;;;;;;;;6.25;3.25;;;;;18.45;52.38;100345.81;5056838;28;46094;-76
2023/03/23 12:23:17;;;;;;;;;3.50;3.50;;;;;19.03;50.09;100331.81;5057111;28;45380;-76
2023/03/23 12:26:07;;;;;;;;;4.25;3.00;;;;;19.68;48.63;100333.25;5056032;28;45332;-76
2023/03/23 12:29:00;;;;;;;;;0.00;0.00;;;;;20.02;46.90;100329.19;5057179;28;45559;-75
2023/03/23 12:31:49;;;;;;;;;5.50;3.00;;;;;20.35;46.79;100322.53;5031475;28;47537;-76
2023/03/23 12:34:40;;;;;;;;;5.00;2.00;;;;;20.59;45.86;100347.44;5056724;28;45447;-76
2023/03/23 12:37:19;;;;;;;;;1.50;0.00;;;;;20.85;44.84;100388.59;5057071;28;45338;-76
2023/03/23 12:40:21;;;;;;;;;5.00;3.50;;;;;20.94;44.93;100335.09;5057360;28;45230;-77
2023/03/23 12:43:12;;;;;;;;;2.25;2.25;;;;;20.84;44.73;100318.75;5056621;28;45513;-76
2023/03/23 12:45:50;;;;;;;;;5.00;4.00;;;;;20.78;45.17;100313.88;5075050;28;45362;-76
2023/03/23 12:48:25;;;;;;;;;4.75;3.75;;;;;20.44;45.45;100309.91;5058228;28;45394;-77
2023/03/23 12:51:29;;;;;;;;;5.50;2.50;;;;;20.40;45.26;100350.19;5057934;28;47342;-77
2023/03/23 12:54:13;;;;;;;;;4.75;3.00;;;;;20.49;45.53;100319.38;5034461;28;46412;-79
2023/03/23 12:57:15;;;;;;;;;1.75;1.75;;;;;20.69;45.09;100340.13;5058233;28;45319;-82
2023/03/23 13:00:02;;;;;;;;;3.00;3.00;;;;;20.87;44.04;100323.91;5061064;28;45474;-75
2023/03/23 13:02:36;;;;;;;;;4.00;3.75;;;;;20.64;44.13;100312.50;5065538;28;45307;-78
2023/03/23 13:05:13;;;;;;;;;2.00;2.00;;;;;20.67;44.76;100286.84;5069448;28;45414;-78
2023/03/23 13:07:53;;;;;;;;;3.25;1.75;;;;;20.64;44.44;100309.75;5070088;28;45470;-78
2023/03/23 13:10:27;;;;;;;;;2.50;2.50;;;;;20.69;44.96;100299.28;5056155;28;45247;-77
2023/03/23 13:12:54;;;;;;;;;4.00;2.75;;;;;20.88;44.12;100287.50;5058323;28;45610;-77
2023/03/23 13:15:54;;;;;;;;;2.25;2.25;;;;;21.36;43.28;100290.06;5067122;28;45543;-76
2023/03/23 13:18:35;;;;;;;;;3.00;2.50;;;;;21.50;41.89;100303.22;5056115;28;45296;-78
2023/03/23 13:21:17;;;;;;;;;1.75;1.75;;;;;21.75;42.49;100263.44;5056156;28;45609;-77
2023/03/23 13:23:48;;;;;;;;;2.50;2.50;;;;;22.30;42.21;100255.13;5056657;28;45280;-77
2023/03/23 13:26:21;;;;;;;;;3.00;3.00;;;;;22.81;39.92;100261.72;5055603;28;45357;-75
2023/03/23 13:28:52;;;;;;;;;6.50;3.50;;;;;22.65;40.03;100243.31;5038402;28;45428;-77
2023/03/23 13:31:39;;;;;;;;;4.50;2.75;;;;;22.38;40.32;100237.97;5056143;28;45508;-77
2023/03/23 13:34:27;;;;;;;;;8.00;3.25;;;;;22.35;40.15;100254.69;5057962;28;45750;-78
2023/03/23 13:37:05;;;;;;;;;3.00;2.00;;;;;21.95;40.69;100216.94;5055490;28;46299;-77
2023/03/23 13:39:33;;;;;;;;;3.00;1.50;;;;;22.01;39.46;100239.03;5063906;28;45469;-78
2023/03/23 13:42:07;;;;;;;;;5.00;3.00;;;;;22.42;39.52;100222.97;5076172;28;45400;-77
2023/03/23 13:44:56;;;;;;;;;7.75;2.75;;;;;22.72;39.07;100225.25;5076250;28;45561;-77
2023/03/23 13:47:25;;;;;;;;;4.25;0.75;;;;;22.54;39.56;100221.72;5057687;28;46647;-77
2023/03/23 13:50:00;;;;;;;;;3.00;2.50;;;;;22.22;40.09;100212.25;5057365;28;46284;-77
2023/03/23 13:52:43;;;;;;;;;2.75;2.75;;;;;22.09;40.15;100209.06;5057638;28;45509;-77
2023/03/23 13:55:20;;;;;;;;;0.75;0.75;;;;;21.93;40.50;100211.63;5076021;28;45502;-77
2023/03/23 13:57:53;;;;;;;;;3.75;2.75;;;;;21.70;40.70;100196.69;5065116;28;46232;-76
2023/03/23 14:00:25;;;;;;;;;3.25;3.25;;;;;21.33;41.91;100205.84;5055516;28;45516;-78
2023/03/23 14:02:51;;;;;;;;;4.50;2.75;;;;;21.45;41.30;100204.63;5044853;28;45600;-78
2023/03/23 14:05:16;;;;;;;;;2.75;2.75;;;;;21.35;41.78;100241.97;5061231;28;45525;-77
2023/03/23 14:07:59;;;;;;;;;5.00;2.50;;;;;21.06;42.22;100201.22;5056458;28;45534;-77
2023/03/23 14:10:31;;;;;;;;;3.25;2.00;;;;;20.77;42.95;100198.59;5055504;28;45343;-76
2023/03/23 14:13:00;;;;;;;;;2.00;2.00;;;;;20.47;43.87;100192.53;5072584;28;45375;-78
2023/03/23 14:15:29;;;;;;;;;3.25;2.25;;;;;20.29;44.61;100201.44;5065100;28;45491;-79
2023/03/23 14:17:54;;;;;;;;;5.50;2.00;;;;;19.99;45.14;100188.84;5054650;28;46497;-77
2023/03/23 14:20:29;;;;;;;;;3.75;3.00;;;;;19.94;45.01;100166.66;5055175;28;45315;-78
2023/03/23 14:22:58;;;;;;;;;1.75;1.75;;;;;20.07;45.04;100179.13;5055093;28;45512;-77
2023/03/23 14:25:30;;;;;;;;;2.50;0.50;;;;;20.10;45.51;100198.72;5055049;28;45601;-79
2023/03/23 14:27:55;;;;;;;;;1.50;1.50;;;;;20.09;45.32;100183.38;5054661;28;46284;-76
2023/03/23 14:30:24;;;;;;;;;3.00;1.50;;;;;20.09;45.82;100190.69;5054943;28;45430;-77
2023/03/23 14:32:52;;;;;;;;;0.50;0.50;;;;;19.85;45.35;100167.50;5057498;28;45343;-77
2023/03/23 14:35:23;;;;;;;;;2.75;2.00;;;;;19.94;45.95;100182.13;5050351;28;45981;-77
2023/03/23 14:37:49;;;;;;;;;2.00;2.00;;;;;19.84;45.57;100187.56;5074144;28;45353;-73
2023/03/23 14:40:18;;;;;;;;;2.25;2.25;;;;;19.59;46.22;100169.94;5074771;28;45315;-75
2023/03/23 14:42:45;;;;;;;;;0.75;0.75;;;;;19.73;46.46;100168.69;5057060;28;45380;-73
2023/03/23 14:45:15;;;;;;;;;1.75;1.75;;;;;19.79;46.22;100170.81;5074440;28;45508;-75
2023/03/23 14:47:50;;;;;;;;;2.00;1.00;;;;;19.70;46.17;100170.81;5074101;28;45423;-75
2023/03/23 14:50:30;;;;;;;;;3.25;2.25;;;;;19.62;46.14;100171.53;5074378;28;45355;-73
2023/03/23 14:52:59;;;;;;;;;3.00;1.25;;;;;19.70;45.83;100178.97;5056640;28;45415;-75
2023/03/23 14:55:28;;;;;;;;;2.75;1.75;;;;;19.61;45.56;100176.09;5074084;28;45462;-74
2023/03/23 14:57:53;;;;;;;;;1.75;1.75;;;;;19.70;45.25;100170.81;5062563;28;46258;-72
2023/03/23 15:00:27;;;;;;;;;3.50;2.00;;;;;19.79;45.04;100161.78;5061459;28;45373;-75
2023/03/23 15:02:56;;;;;;;;;2.00;1.25;;;;;19.70;45.47;100152.63;5063019;28;45417;-73
2023/03/23 15:05:26;;;;;;;;;3.75;2.00;;;;;19.82;45.25;100158.81;5053934;28;45414;-74
2023/03/23 15:07:55;;;;;;;;;1.50;0.75;;;;;19.88;45.10;100141.91;5035777;28;48433;-71
2023/03/23 15:10:23;;;;;;;;;4.00;2.75;;;;;19.94;44.94;100171.22;5053977;28;45399;-73
2023/03/23 15:12:50;;;;;;;;;3.00;1.50;;;;;19.68;45.12;100157.34;5055955;28;45430;-74
2023/03/23 15:15:27;;;;;;;;;1.75;1.75;;;;;19.67;44.95;100157.50;5066086;28;45537;-74
2023/03/23 15:17:53;;;;;;;;;1.25;1.25;;;;;19.56;45.23;100156.63;5057131;28;45365;-73
2023/03/23 15:20:31;;;;;;;;;2.75;2.00;;;;;19.36;45.08;100152.13;5054067;28;45556;-74
2023/03/23 15:23:04;;;;;;;;;2.00;2.00;;;;;19.14;45.40;100117.91;5053944;28;45388;-80
2023/03/23 15:25:33;;;;;;;;;2.50;1.50;;;;;19.14;45.43;100152.41;5053632;28;45447;-73
2023/03/23 15:28:17;;;;;;;;;2.50;1.50;;;;;19.07;45.18;100156.63;5035515;28;46231;-74
2023/03/23 15:30:57;;;;;;;;;2.00;1.75;;;;;19.04;45.69;100159.66;5053638;28;45482;-74
2023/03/23 15:33:27;;;;;;;;;2.00;1.00;;;;;18.92;45.29;100147.16;5055924;28;45418;-73
2023/03/23 15:35:54;;;;;;;;;3.25;2.00;;;;;18.54;46.29;100133.25;5066430;28;45371;-72
2023/03/23 15:38:24;;;;;;;;;2.00;2.00;;;;;18.57;46.48;100161.16;5064450;28;45453;-72
2023/03/23 15:40:52;;;;;;;;;2.50;2.50;;;;;18.36;47.19;100131.34;5055048;28;45350;-72
2023/03/23 15:43:23;;;;;;;;;1.25;1.25;;;;;18.49;47.00;100165.38;5057894;28;45403;-73
2023/03/23 15:46:00;;;;;;;;;1.50;1.50;;;;;18.45;47.15;100158.53;5053679;28;45502;-78
2023/03/23 15:48:27;;;;;;;;;3.00;1.25;;;;;18.44;47.44;100148.66;5064358;28;45391;-74
2023/03/23 15:50:52;;;;;;;;;3.00;2.00;;;;;18.39;47.55;100147.31;5065930;28;45390;-72
2023/03/23 15:53:27;;;;;;;;;2.25;2.25;;;;;18.35;47.65;100151.31;5071381;28;45324;-74
2023/03/23 15:55:53;;;;;;;;;1.00;1.00;;;;;18.33;47.72;100140.59;5063021;28;45516;-73
2023/03/23 15:58:18;;;;;;;;;2.00;1.00;;;;;18.32;47.97;100141.59;5053283;28;45175;-73
2023/03/23 16:00:45;;;;;;;;;2.50;2.50;;;;;18.29;47.81;100147.28;5054464;28;45359;-72
2023/03/23 16:03:24;;;;;;;;;2.75;2.75;;;;;18.08;48.15;100144.59;5066307;28;45347;-74
2023/03/23 16:05:49;;;;;;;;;3.75;2.50;;;;;17.82;49.30;100129.69;5064855;28;45590;-74
2023/03/23 16:08:15;;;;;;;;;3.50;2.25;;;;;17.67;49.18;100118.31;5056740;28;46173;-74
2023/03/23 16:10:41;;;;;;;;;1.75;1.75;;;;;17.69;49.13;100119.03;5056632;28;45308;-73
2023/03/23 16:13:06;;;;;;;;;4.25;1.00;;;;;17.63;49.77;100115.97;5060905;28;45421;-74
2023/03/23 16:15:32;;;;;;;;;0.00;0.00;;;;;17.64;50.00;100115.00;5066691;28;45288;-73
2023/03/23 16:17:57;;;;;;;;;3.00;3.00;;;;;17.63;50.02;100114.13;5074289;28;45399;-74
2023/03/23 16:20:23;;;;;;;;;1.00;1.00;;;;;17.50;50.45;100088.19;5077068;28;45342;-73
2023/03/23 16:22:50;;;;;;;;;3.00;1.50;;;;;17.76;50.13;100116.66;5058651;28;45410;-75
2023/03/23 16:25:17;;;;;;;;;2.00;2.00;;;;;17.75;50.32;100106.81;5076570;28;45184;-73
2023/03/23 16:27:48;;;;;;;;;1.25;1.25;;;;;17.82;50.32;100115.28;5076608;28;46264;-73
2023/03/23 16:30:20;;;;;;;;;3.50;1.75;;;;;17.60;48.65;100091.84;5066078;28;45540;-74
2023/03/23 16:32:46;;;;;;;;;2.00;2.00;;;;;17.67;48.58;100102.06;5058991;28;45457;-73
2023/03/23 16:35:13;;;;;;;;;1.25;1.25;;;;;17.59;48.39;100098.25;5056132;28;45350;-74
2023/03/23 16:37:43;;;;;;;;;2.25;2.25;;;;;17.48;48.65;100101.84;5055292;28;46795;-75
2023/03/23 16:40:11;;;;;;;;;1.50;1.50;;;;;17.35;48.68;100068.66;5038030;28;45796;-73
2023/03/23 16:42:37;;;;;;;;;1.50;1.50;;;;;17.35;48.53;100076.81;5056320;28;45335;-73
2023/03/23 16:45:02;;;;;;;;;1.50;1.50;;;;;17.51;48.30;100101.59;5056138;28;45296;-74
2023/03/23 16:47:28;;;;;;;;;2.75;2.00;;;;;17.44;48.86;100089.53;5055784;28;45377;-76
2023/03/23 16:49:53;;;;;;;;;1.50;1.25;;;;;17.44;48.52;100083.28;5056243;28;45376;-73
2023/03/23 16:52:19;;;;;;;;;3.00;1.00;;;;;17.53;48.65;100083.34;5055589;28;45307;-74
2023/03/23 16:54:44;;;;;;;;;2.50;2.50;;;;;17.47;48.86;100097.41;5055834;28;45353;-72
2023/03/23 16:57:11;;;;;;;;;2.00;2.00;;;;;17.39;49.33;100081.81;5061654;28;46085;-73
2023/03/23 16:59:36;;;;;;;;;3.00;1.00;;;;;17.34;49.48;100069.66;5045594;28;45330;-74
2023/03/23 17:02:02;;;;;;;;;3.75;2.00;;;;;17.51;49.50;100088.06;5055152;28;45989;-71
2023/03/23 17:04:31;;;;;;;;;1.50;1.00;;;;;17.43;49.89;100078.84;5068924;28;45393;-73
2023/03/23 17:06:57;;;;;;;;;2.50;2.00;;;;;17.43;50.12;100093.28;5065109;28;45464;-76
2023/03/23 17:09:26;;;;;;;;;2.75;2.00;;;;;17.40;50.09;100083.53;5075820;28;45334;-73
2023/03/23 17:11:52;;;;;;;;;3.25;3.25;;;;;17.27;50.45;100071.13;5074834;28;45330;-75
2023/03/23 17:14:20;;;;;;;;;2.50;2.50;;;;;17.39;50.82;100087.22;5074514;28;45744;-74